sensor_id;sensor_type;location;lat;lon;timestamp;P1;durP1;ratioP1;P2;durP2;ratioP2
24685;SDS011;12804;51.176;4.452;2023-02-13T00:02:14;55.45;;;29.30;;
24685;SDS011;12804;51.176;4.452;2023-02-13T00:04:40;52.53;;;28.67;;
24685;SDS011;12804;51.176;4.452;2023-02-13T00:07:09;58.95;;;30.02;;
24685;SDS011;12804;51.176;4.452;2023-02-13T00:09:36;52.15;;;28.52;;
24685;SDS011;12804;51.176;4.452;2023-02-13T00:12:03;54.72;;;29.48;;
24685;SDS011;12804;51.176;4.452;2023-02-13T00:14:30;55.08;;;29.52;;
24685;SDS011;12804;51.176;4.452;2023-02-13T00:16:58;56.60;;;29.85;;
24685;SDS011;12804;51.176;4.452;2023-02-13T00:19:24;52.67;;;27.42;;
24685;SDS011;12804;51.176;4.452;2023-02-13T00:21:50;55.20;;;29.58;;
24685;SDS011;12804;51.176;4.452;2023-02-13T00:24:16;54.50;;;28.52;;
24685;SDS011;12804;51.176;4.452;2023-02-13T00:26:42;54.88;;;29.63;;
24685;SDS011;12804;51.176;4.452;2023-02-13T00:29:07;57.05;;;29.67;;
24685;SDS011;12804;51.176;4.452;2023-02-13T00:31:33;59.53;;;30.55;;
24685;SDS011;12804;51.176;4.452;2023-02-13T00:33:59;55.15;;;28.98;;
24685;SDS011;12804;51.176;4.452;2023-02-13T00:36:25;60.40;;;29.83;;
24685;SDS011;12804;51.176;4.452;2023-02-13T00:38:52;55.90;;;28.08;;
24685;SDS011;12804;51.176;4.452;2023-02-13T00:41:18;55.92;;;28.90;;
24685;SDS011;12804;51.176;4.452;2023-02-13T00:43:45;63.17;;;30.00;;
24685;SDS011;12804;51.176;4.452;2023-02-13T00:46:12;61.00;;;30.27;;
24685;SDS011;12804;51.176;4.452;2023-02-13T00:48:38;58.38;;;29.08;;
24685;SDS011;12804;51.176;4.452;2023-02-13T00:51:04;60.20;;;29.48;;
24685;SDS011;12804;51.176;4.452;2023-02-13T00:53:31;61.30;;;29.70;;
24685;SDS011;12804;51.176;4.452;2023-02-13T00:55:58;62.03;;;30.35;;
24685;SDS011;12804;51.176;4.452;2023-02-13T00:58:24;60.70;;;29.88;;
24685;SDS011;12804;51.176;4.452;2023-02-13T01:00:50;60.28;;;29.58;;
24685;SDS011;12804;51.176;4.452;2023-02-13T01:03:18;61.13;;;29.63;;
24685;SDS011;12804;51.176;4.452;2023-02-13T01:05:45;60.28;;;29.55;;
24685;SDS011;12804;51.176;4.452;2023-02-13T01:08:11;60.10;;;30.35;;
24685;SDS011;12804;51.176;4.452;2023-02-13T01:10:39;61.15;;;30.17;;
24685;SDS011;12804;51.176;4.452;2023-02-13T01:13:06;61.08;;;29.17;;
24685;SDS011;12804;51.176;4.452;2023-02-13T01:15:33;58.33;;;29.45;;
24685;SDS011;12804;51.176;4.452;2023-02-13T01:18:00;61.20;;;29.67;;
24685;SDS011;12804;51.176;4.452;2023-02-13T01:20:26;58.53;;;28.30;;
24685;SDS011;12804;51.176;4.452;2023-02-13T01:22:53;61.22;;;29.25;;
24685;SDS011;12804;51.176;4.452;2023-02-13T01:25:19;60.95;;;30.38;;
24685;SDS011;12804;51.176;4.452;2023-02-13T01:27:45;63.95;;;30.42;;
24685;SDS011;12804;51.176;4.452;2023-02-13T01:30:12;62.85;;;29.98;;
24685;SDS011;12804;51.176;4.452;2023-02-13T01:32:39;56.88;;;28.05;;
24685;SDS011;12804;51.176;4.452;2023-02-13T01:35:06;64.35;;;29.83;;
24685;SDS011;12804;51.176;4.452;2023-02-13T01:37:32;62.17;;;31.08;;
24685;SDS011;12804;51.176;4.452;2023-02-13T01:39:59;60.80;;;29.40;;
24685;SDS011;12804;51.176;4.452;2023-02-13T01:42:29;59.22;;;30.38;;
24685;SDS011;12804;51.176;4.452;2023-02-13T01:47:41;62.03;;;30.20;;
24685;SDS011;12804;51.176;4.452;2023-02-13T01:53:29;58.70;;;28.70;;
24685;SDS011;12804;51.176;4.452;2023-02-13T01:56:28;60.42;;;28.75;;
24685;SDS011;12804;51.176;4.452;2023-02-13T01:58:53;60.67;;;28.65;;
24685;SDS011;12804;51.176;4.452;2023-02-13T02:01:22;57.67;;;28.38;;
24685;SDS011;12804;51.176;4.452;2023-02-13T02:04:09;61.45;;;29.80;;
24685;SDS011;12804;51.176;4.452;2023-02-13T02:06:45;60.70;;;29.65;;
24685;SDS011;12804;51.176;4.452;2023-02-13T02:09:23;55.38;;;27.17;;
24685;SDS011;12804;51.176;4.452;2023-02-13T02:14:37;60.35;;;28.80;;
24685;SDS011;12804;51.176;4.452;2023-02-13T02:17:07;58.50;;;28.35;;
24685;SDS011;12804;51.176;4.452;2023-02-13T02:22:18;57.00;;;27.60;;
24685;SDS011;12804;51.176;4.452;2023-02-13T02:43:47;60.95;;;28.58;;
24685;SDS011;12804;51.176;4.452;2023-02-13T02:58:07;57.97;;;28.17;;
24685;SDS011;12804;51.176;4.452;2023-02-13T03:01:13;60.72;;;28.30;;
24685;SDS011;12804;51.176;4.452;2023-02-13T03:04:00;58.22;;;28.17;;
24685;SDS011;12804;51.176;4.452;2023-02-13T03:06:56;62.65;;;28.48;;
24685;SDS011;12804;51.176;4.452;2023-02-13T03:09:27;59.13;;;28.27;;
24685;SDS011;12804;51.176;4.452;2023-02-13T03:12:16;61.35;;;28.60;;
24685;SDS011;12804;51.176;4.452;2023-02-13T03:15:05;62.08;;;29.70;;
24685;SDS011;12804;51.176;4.452;2023-02-13T03:17:31;64.07;;;29.27;;
24685;SDS011;12804;51.176;4.452;2023-02-13T03:23:53;62.45;;;28.63;;
24685;SDS011;12804;51.176;4.452;2023-02-13T03:26:46;61.25;;;28.42;;
24685;SDS011;12804;51.176;4.452;2023-02-13T03:38:06;67.40;;;30.83;;
24685;SDS011;12804;51.176;4.452;2023-02-13T03:46:19;70.20;;;30.17;;
24685;SDS011;12804;51.176;4.452;2023-02-13T03:48:46;69.85;;;30.40;;
24685;SDS011;12804;51.176;4.452;2023-02-13T03:57:17;60.85;;;28.10;;
24685;SDS011;12804;51.176;4.452;2023-02-13T04:00:05;61.15;;;28.38;;
24685;SDS011;12804;51.176;4.452;2023-02-13T04:02:42;63.60;;;29.92;;
24685;SDS011;12804;51.176;4.452;2023-02-13T04:05:27;63.40;;;29.05;;
24685;SDS011;12804;51.176;4.452;2023-02-13T04:07:55;73.20;;;31.48;;
24685;SDS011;12804;51.176;4.452;2023-02-13T04:10:21;66.07;;;29.45;;
24685;SDS011;12804;51.176;4.452;2023-02-13T04:13:04;64.75;;;29.30;;
24685;SDS011;12804;51.176;4.452;2023-02-13T04:15:44;66.57;;;28.13;;
24685;SDS011;12804;51.176;4.452;2023-02-13T04:18:21;64.57;;;28.50;;
24685;SDS011;12804;51.176;4.452;2023-02-13T04:20:50;60.92;;;28.40;;
24685;SDS011;12804;51.176;4.452;2023-02-13T04:23:16;64.07;;;28.35;;
24685;SDS011;12804;51.176;4.452;2023-02-13T04:25:43;67.75;;;29.80;;
24685;SDS011;12804;51.176;4.452;2023-02-13T04:28:13;60.08;;;29.13;;
24685;SDS011;12804;51.176;4.452;2023-02-13T04:30:38;68.07;;;31.65;;
24685;SDS011;12804;51.176;4.452;2023-02-13T04:33:04;65.85;;;30.65;;
24685;SDS011;12804;51.176;4.452;2023-02-13T04:35:30;62.72;;;28.88;;
24685;SDS011;12804;51.176;4.452;2023-02-13T04:37:56;67.10;;;29.38;;
24685;SDS011;12804;51.176;4.452;2023-02-13T04:40:22;63.58;;;29.38;;
24685;SDS011;12804;51.176;4.452;2023-02-13T04:42:48;68.38;;;30.38;;
24685;SDS011;12804;51.176;4.452;2023-02-13T04:45:14;65.68;;;30.00;;
24685;SDS011;12804;51.176;4.452;2023-02-13T04:47:40;69.90;;;28.88;;
24685;SDS011;12804;51.176;4.452;2023-02-13T04:50:06;61.63;;;29.08;;
24685;SDS011;12804;51.176;4.452;2023-02-13T04:52:32;64.25;;;29.50;;
24685;SDS011;12804;51.176;4.452;2023-02-13T04:54:58;61.92;;;28.60;;
24685;SDS011;12804;51.176;4.452;2023-02-13T04:57:24;66.65;;;29.30;;
24685;SDS011;12804;51.176;4.452;2023-02-13T04:59:50;67.75;;;30.42;;
24685;SDS011;12804;51.176;4.452;2023-02-13T05:02:16;64.32;;;29.63;;
24685;SDS011;12804;51.176;4.452;2023-02-13T05:04:42;68.32;;;30.20;;
24685;SDS011;12804;51.176;4.452;2023-02-13T05:07:08;64.53;;;30.17;;
24685;SDS011;12804;51.176;4.452;2023-02-13T05:09:33;82.63;;;32.72;;
24685;SDS011;12804;51.176;4.452;2023-02-13T05:11:59;81.03;;;33.83;;
24685;SDS011;12804;51.176;4.452;2023-02-13T05:14:26;91.90;;;35.40;;
24685;SDS011;12804;51.176;4.452;2023-02-13T05:16:51;94.60;;;35.67;;
24685;SDS011;12804;51.176;4.452;2023-02-13T05:19:17;99.22;;;35.83;;
24685;SDS011;12804;51.176;4.452;2023-02-13T05:21:43;83.35;;;31.88;;
24685;SDS011;12804;51.176;4.452;2023-02-13T05:24:27;122.43;;;30.73;;
24685;SDS011;12804;51.176;4.452;2023-02-13T05:26:53;81.60;;;31.00;;
24685;SDS011;12804;51.176;4.452;2023-02-13T05:29:19;226.98;;;34.35;;
24685;SDS011;12804;51.176;4.452;2023-02-13T05:31:53;114.70;;;31.15;;
24685;SDS011;12804;51.176;4.452;2023-02-13T05:34:21;161.73;;;34.47;;
24685;SDS011;12804;51.176;4.452;2023-02-13T05:36:48;155.70;;;35.95;;
24685;SDS011;12804;51.176;4.452;2023-02-13T05:39:15;70.18;;;30.67;;
24685;SDS011;12804;51.176;4.452;2023-02-13T05:41:42;196.60;;;31.08;;
24685;SDS011;12804;51.176;4.452;2023-02-13T05:44:09;84.40;;;28.30;;
24685;SDS011;12804;51.176;4.452;2023-02-13T05:46:36;88.25;;;28.25;;
24685;SDS011;12804;51.176;4.452;2023-02-13T05:49:03;90.30;;;27.88;;
24685;SDS011;12804;51.176;4.452;2023-02-13T05:51:29;52.33;;;26.50;;
24685;SDS011;12804;51.176;4.452;2023-02-13T05:53:55;56.00;;;26.73;;
24685;SDS011;12804;51.176;4.452;2023-02-13T05:56:21;87.75;;;26.30;;
24685;SDS011;12804;51.176;4.452;2023-02-13T05:58:50;46.53;;;23.83;;
24685;SDS011;12804;51.176;4.452;2023-02-13T06:01:19;89.40;;;25.70;;
24685;SDS011;12804;51.176;4.452;2023-02-13T06:03:46;113.60;;;25.73;;
24685;SDS011;12804;51.176;4.452;2023-02-13T06:06:12;112.55;;;25.92;;
24685;SDS011;12804;51.176;4.452;2023-02-13T06:08:38;69.68;;;24.02;;
24685;SDS011;12804;51.176;4.452;2023-02-13T06:11:04;120.95;;;26.90;;
24685;SDS011;12804;51.176;4.452;2023-02-13T06:13:30;48.70;;;24.80;;
24685;SDS011;12804;51.176;4.452;2023-02-13T06:15:56;82.43;;;25.95;;
24685;SDS011;12804;51.176;4.452;2023-02-13T06:18:22;114.95;;;27.42;;
24685;SDS011;12804;51.176;4.452;2023-02-13T06:20:48;83.60;;;25.20;;
24685;SDS011;12804;51.176;4.452;2023-02-13T06:23:13;69.43;;;24.10;;
24685;SDS011;12804;51.176;4.452;2023-02-13T06:25:39;55.75;;;23.38;;
24685;SDS011;12804;51.176;4.452;2023-02-13T06:28:05;61.20;;;22.63;;
24685;SDS011;12804;51.176;4.452;2023-02-13T06:30:31;68.93;;;21.92;;
24685;SDS011;12804;51.176;4.452;2023-02-13T06:32:58;37.55;;;20.50;;
24685;SDS011;12804;51.176;4.452;2023-02-13T06:35:24;53.03;;;21.42;;
24685;SDS011;12804;51.176;4.452;2023-02-13T06:37:49;45.08;;;20.38;;
24685;SDS011;12804;51.176;4.452;2023-02-13T06:40:15;39.95;;;19.63;;
24685;SDS011;12804;51.176;4.452;2023-02-13T06:42:42;37.45;;;20.23;;
24685;SDS011;12804;51.176;4.452;2023-02-13T06:45:09;42.80;;;20.67;;
24685;SDS011;12804;51.176;4.452;2023-02-13T06:47:39;39.63;;;19.67;;
24685;SDS011;12804;51.176;4.452;2023-02-13T06:50:09;38.00;;;19.58;;
24685;SDS011;12804;51.176;4.452;2023-02-13T06:52:36;35.58;;;20.30;;
24685;SDS011;12804;51.176;4.452;2023-02-13T06:55:02;45.42;;;20.88;;
24685;SDS011;12804;51.176;4.452;2023-02-13T06:57:29;39.63;;;21.50;;
24685;SDS011;12804;51.176;4.452;2023-02-13T07:00:00;52.55;;;22.50;;
24685;SDS011;12804;51.176;4.452;2023-02-13T07:02:30;39.47;;;21.55;;
24685;SDS011;12804;51.176;4.452;2023-02-13T07:04:56;41.10;;;20.92;;
24685;SDS011;12804;51.176;4.452;2023-02-13T07:07:22;34.33;;;21.08;;
24685;SDS011;12804;51.176;4.452;2023-02-13T07:09:48;36.60;;;20.80;;
24685;SDS011;12804;51.176;4.452;2023-02-13T07:12:14;40.30;;;21.73;;
24685;SDS011;12804;51.176;4.452;2023-02-13T07:14:40;38.67;;;20.98;;
24685;SDS011;12804;51.176;4.452;2023-02-13T07:17:06;40.28;;;20.88;;
24685;SDS011;12804;51.176;4.452;2023-02-13T07:19:32;33.92;;;20.58;;
24685;SDS011;12804;51.176;4.452;2023-02-13T07:21:58;36.35;;;20.27;;
24685;SDS011;12804;51.176;4.452;2023-02-13T07:24:23;36.75;;;21.05;;
24685;SDS011;12804;51.176;4.452;2023-02-13T07:26:49;38.20;;;21.30;;
24685;SDS011;12804;51.176;4.452;2023-02-13T07:29:15;35.15;;;20.48;;
24685;SDS011;12804;51.176;4.452;2023-02-13T07:31:41;36.83;;;21.88;;
24685;SDS011;12804;51.176;4.452;2023-02-13T07:34:07;34.67;;;21.77;;
24685;SDS011;12804;51.176;4.452;2023-02-13T07:36:33;33.03;;;20.48;;
24685;SDS011;12804;51.176;4.452;2023-02-13T07:38:59;33.58;;;20.42;;
24685;SDS011;12804;51.176;4.452;2023-02-13T07:41:24;31.63;;;20.35;;
24685;SDS011;12804;51.176;4.452;2023-02-13T07:43:51;31.55;;;21.02;;
24685;SDS011;12804;51.176;4.452;2023-02-13T07:46:17;28.20;;;18.60;;
24685;SDS011;12804;51.176;4.452;2023-02-13T07:48:43;29.58;;;17.80;;
24685;SDS011;12804;51.176;4.452;2023-02-13T07:51:09;28.38;;;18.15;;
24685;SDS011;12804;51.176;4.452;2023-02-13T07:53:35;29.58;;;17.88;;
24685;SDS011;12804;51.176;4.452;2023-02-13T07:56:04;28.67;;;18.73;;
24685;SDS011;12804;51.176;4.452;2023-02-13T07:58:31;29.42;;;18.25;;
24685;SDS011;12804;51.176;4.452;2023-02-13T08:00:57;29.83;;;18.38;;
24685;SDS011;12804;51.176;4.452;2023-02-13T08:03:23;30.02;;;18.50;;
24685;SDS011;12804;51.176;4.452;2023-02-13T08:05:48;29.23;;;18.98;;
24685;SDS011;12804;51.176;4.452;2023-02-13T08:08:15;29.38;;;19.13;;
24685;SDS011;12804;51.176;4.452;2023-02-13T08:10:41;27.83;;;18.38;;
24685;SDS011;12804;51.176;4.452;2023-02-13T08:13:25;27.75;;;18.23;;
24685;SDS011;12804;51.176;4.452;2023-02-13T08:15:51;29.00;;;18.15;;
24685;SDS011;12804;51.176;4.452;2023-02-13T08:18:17;32.72;;;19.35;;
24685;SDS011;12804;51.176;4.452;2023-02-13T08:20:43;30.30;;;18.70;;
24685;SDS011;12804;51.176;4.452;2023-02-13T08:23:09;28.95;;;19.20;;
24685;SDS011;12804;51.176;4.452;2023-02-13T08:25:36;29.83;;;18.45;;
24685;SDS011;12804;51.176;4.452;2023-02-13T08:28:03;29.80;;;18.67;;
24685;SDS011;12804;51.176;4.452;2023-02-13T08:30:29;30.63;;;19.08;;
24685;SDS011;12804;51.176;4.452;2023-02-13T08:32:55;31.92;;;18.48;;
24685;SDS011;12804;51.176;4.452;2023-02-13T08:35:21;28.85;;;18.88;;
24685;SDS011;12804;51.176;4.452;2023-02-13T08:37:51;30.25;;;19.63;;
24685;SDS011;12804;51.176;4.452;2023-02-13T08:40:17;32.20;;;19.58;;
24685;SDS011;12804;51.176;4.452;2023-02-13T08:42:43;33.33;;;19.15;;
24685;SDS011;12804;51.176;4.452;2023-02-13T08:45:09;33.13;;;19.08;;
24685;SDS011;12804;51.176;4.452;2023-02-13T08:47:36;27.98;;;18.05;;
24685;SDS011;12804;51.176;4.452;2023-02-13T08:50:02;34.83;;;19.98;;
24685;SDS011;12804;51.176;4.452;2023-02-13T08:52:29;29.52;;;19.10;;
24685;SDS011;12804;51.176;4.452;2023-02-13T08:54:54;32.83;;;19.75;;
24685;SDS011;12804;51.176;4.452;2023-02-13T08:57:20;29.30;;;18.98;;
24685;SDS011;12804;51.176;4.452;2023-02-13T08:59:46;29.63;;;18.33;;
24685;SDS011;12804;51.176;4.452;2023-02-13T09:02:12;28.63;;;18.50;;
24685;SDS011;12804;51.176;4.452;2023-02-13T09:04:39;28.02;;;18.83;;
24685;SDS011;12804;51.176;4.452;2023-02-13T09:07:05;27.65;;;19.20;;
24685;SDS011;12804;51.176;4.452;2023-02-13T09:09:31;32.05;;;18.20;;
24685;SDS011;12804;51.176;4.452;2023-02-13T09:11:56;31.60;;;18.58;;
24685;SDS011;12804;51.176;4.452;2023-02-13T09:14:23;27.83;;;18.38;;
24685;SDS011;12804;51.176;4.452;2023-02-13T09:16:49;31.65;;;18.38;;
24685;SDS011;12804;51.176;4.452;2023-02-13T09:19:14;29.55;;;18.20;;
24685;SDS011;12804;51.176;4.452;2023-02-13T09:21:40;24.75;;;16.77;;
24685;SDS011;12804;51.176;4.452;2023-02-13T09:24:07;28.08;;;18.30;;
24685;SDS011;12804;51.176;4.452;2023-02-13T09:26:34;27.23;;;18.00;;
24685;SDS011;12804;51.176;4.452;2023-02-13T09:29:00;28.17;;;17.10;;
24685;SDS011;12804;51.176;4.452;2023-02-13T09:31:26;27.75;;;18.98;;
24685;SDS011;12804;51.176;4.452;2023-02-13T09:33:52;25.58;;;17.42;;
24685;SDS011;12804;51.176;4.452;2023-02-13T09:36:18;27.75;;;17.67;;
24685;SDS011;12804;51.176;4.452;2023-02-13T09:38:46;26.02;;;17.42;;
24685;SDS011;12804;51.176;4.452;2023-02-13T09:41:21;24.83;;;16.23;;
24685;SDS011;12804;51.176;4.452;2023-02-13T09:43:54;24.98;;;16.65;;
24685;SDS011;12804;51.176;4.452;2023-02-13T09:46:33;25.67;;;17.35;;
24685;SDS011;12804;51.176;4.452;2023-02-13T09:49:03;25.30;;;17.10;;
24685;SDS011;12804;51.176;4.452;2023-02-13T09:51:43;26.38;;;16.67;;
24685;SDS011;12804;51.176;4.452;2023-02-13T09:54:14;24.27;;;17.02;;
24685;SDS011;12804;51.176;4.452;2023-02-13T09:56:56;26.55;;;16.35;;
24685;SDS011;12804;51.176;4.452;2023-02-13T10:10:27;29.48;;;15.85;;
24685;SDS011;12804;51.176;4.452;2023-02-13T10:16:41;22.75;;;14.88;;
24685;SDS011;12804;51.176;4.452;2023-02-13T10:21:48;22.92;;;15.23;;
24685;SDS011;12804;51.176;4.452;2023-02-13T10:29:57;16.42;;;12.30;;
24685;SDS011;12804;51.176;4.452;2023-02-13T10:32:48;17.30;;;12.00;;
24685;SDS011;12804;51.176;4.452;2023-02-13T10:35:57;17.40;;;12.50;;
24685;SDS011;12804;51.176;4.452;2023-02-13T10:38:26;17.00;;;12.38;;
24685;SDS011;12804;51.176;4.452;2023-02-13T10:46:31;15.15;;;11.23;;
24685;SDS011;12804;51.176;4.452;2023-02-13T11:00:34;15.23;;;11.57;;
24685;SDS011;12804;51.176;4.452;2023-02-13T11:03:24;15.55;;;10.35;;
24685;SDS011;12804;51.176;4.452;2023-02-13T11:05:52;15.95;;;10.95;;
24685;SDS011;12804;51.176;4.452;2023-02-13T11:08:20;13.52;;;10.88;;
24685;SDS011;12804;51.176;4.452;2023-02-13T11:10:50;17.13;;;10.68;;
24685;SDS011;12804;51.176;4.452;2023-02-13T11:13:21;13.60;;;10.38;;
24685;SDS011;12804;51.176;4.452;2023-02-13T11:16:04;13.00;;;10.90;;
24685;SDS011;12804;51.176;4.452;2023-02-13T11:18:32;14.00;;;10.93;;
24685;SDS011;12804;51.176;4.452;2023-02-13T11:23:41;12.63;;;10.00;;
24685;SDS011;12804;51.176;4.452;2023-02-13T11:26:20;13.70;;;10.32;;
24685;SDS011;12804;51.176;4.452;2023-02-13T11:28:58;12.80;;;10.30;;
24685;SDS011;12804;51.176;4.452;2023-02-13T11:31:32;12.20;;;10.02;;
24685;SDS011;12804;51.176;4.452;2023-02-13T11:34:16;13.98;;;11.15;;
24685;SDS011;12804;51.176;4.452;2023-02-13T11:37:22;14.25;;;10.65;;
24685;SDS011;12804;51.176;4.452;2023-02-13T11:39:43;13.75;;;10.25;;
24685;SDS011;12804;51.176;4.452;2023-02-13T11:42:14;11.82;;;10.05;;
24685;SDS011;12804;51.176;4.452;2023-02-13T11:45:40;14.45;;;10.60;;
24685;SDS011;12804;51.176;4.452;2023-02-13T11:47:48;11.80;;;9.75;;
24685;SDS011;12804;51.176;4.452;2023-02-13T11:52:55;14.25;;;10.07;;
24685;SDS011;12804;51.176;4.452;2023-02-13T11:55:26;14.23;;;10.85;;
24685;SDS011;12804;51.176;4.452;2023-02-13T11:58:40;14.35;;;10.40;;
24685;SDS011;12804;51.176;4.452;2023-02-13T12:00:41;16.52;;;11.73;;
24685;SDS011;12804;51.176;4.452;2023-02-13T12:06:12;15.75;;;12.25;;
24685;SDS011;12804;51.176;4.452;2023-02-13T12:08:40;15.05;;;11.93;;
24685;SDS011;12804;51.176;4.452;2023-02-13T12:14:03;17.27;;;11.75;;
24685;SDS011;12804;51.176;4.452;2023-02-13T12:16:37;15.98;;;12.10;;
24685;SDS011;12804;51.176;4.452;2023-02-13T12:19:11;16.02;;;12.32;;
24685;SDS011;12804;51.176;4.452;2023-02-13T12:27:15;13.93;;;11.23;;
24685;SDS011;12804;51.176;4.452;2023-02-13T12:32:46;17.10;;;11.90;;
24685;SDS011;12804;51.176;4.452;2023-02-13T12:41:08;13.88;;;10.40;;
24685;SDS011;12804;51.176;4.452;2023-02-13T12:43:51;14.18;;;10.07;;
24685;SDS011;12804;51.176;4.452;2023-02-13T12:46:29;14.88;;;10.88;;
24685;SDS011;12804;51.176;4.452;2023-02-13T12:54:53;13.45;;;9.93;;
24685;SDS011;12804;51.176;4.452;2023-02-13T13:05:31;14.38;;;10.60;;
24685;SDS011;12804;51.176;4.452;2023-02-13T13:11:01;13.48;;;10.10;;
24685;SDS011;12804;51.176;4.452;2023-02-13T13:16:35;12.93;;;9.23;;
24685;SDS011;12804;51.176;4.452;2023-02-13T13:21:57;12.57;;;9.48;;
24685;SDS011;12804;51.176;4.452;2023-02-13T13:27:26;12.88;;;9.45;;
24685;SDS011;12804;51.176;4.452;2023-02-13T13:29:56;13.40;;;9.63;;
24685;SDS011;12804;51.176;4.452;2023-02-13T13:32:25;12.07;;;9.13;;
24685;SDS011;12804;51.176;4.452;2023-02-13T13:34:53;10.48;;;8.57;;
24685;SDS011;12804;51.176;4.452;2023-02-13T13:37:31;12.93;;;9.30;;
24685;SDS011;12804;51.176;4.452;2023-02-13T13:43:12;10.75;;;9.30;;
24685;SDS011;12804;51.176;4.452;2023-02-13T13:51:06;13.98;;;9.73;;
24685;SDS011;12804;51.176;4.452;2023-02-13T13:53:34;14.57;;;9.50;;
24685;SDS011;12804;51.176;4.452;2023-02-13T13:56:21;13.27;;;10.30;;
24685;SDS011;12804;51.176;4.452;2023-02-13T13:58:47;12.90;;;9.82;;
24685;SDS011;12804;51.176;4.452;2023-02-13T14:03:58;12.65;;;9.20;;
24685;SDS011;12804;51.176;4.452;2023-02-13T14:09:35;13.45;;;9.73;;
24685;SDS011;12804;51.176;4.452;2023-02-13T14:14:54;11.32;;;9.57;;
24685;SDS011;12804;51.176;4.452;2023-02-13T14:20:19;14.35;;;9.85;;
24685;SDS011;12804;51.176;4.452;2023-02-13T14:22:51;11.60;;;9.03;;
24685;SDS011;12804;51.176;4.452;2023-02-13T14:25:24;13.13;;;9.30;;
24685;SDS011;12804;51.176;4.452;2023-02-13T14:28:34;10.77;;;8.77;;
24685;SDS011;12804;51.176;4.452;2023-02-13T14:30:43;12.20;;;9.50;;
24685;SDS011;12804;51.176;4.452;2023-02-13T14:33:20;14.57;;;8.80;;
24685;SDS011;12804;51.176;4.452;2023-02-13T14:36:02;12.35;;;9.07;;
24685;SDS011;12804;51.176;4.452;2023-02-13T14:38:30;12.40;;;9.35;;
24685;SDS011;12804;51.176;4.452;2023-02-13T14:40:58;13.77;;;10.07;;
24685;SDS011;12804;51.176;4.452;2023-02-13T14:49:19;11.13;;;8.30;;
24685;SDS011;12804;51.176;4.452;2023-02-13T14:56:45;12.55;;;8.63;;
24685;SDS011;12804;51.176;4.452;2023-02-13T14:59:15;10.85;;;8.13;;
24685;SDS011;12804;51.176;4.452;2023-02-13T15:01:45;11.60;;;8.25;;
24685;SDS011;12804;51.176;4.452;2023-02-13T15:04:29;14.52;;;8.63;;
24685;SDS011;12804;51.176;4.452;2023-02-13T15:06:56;10.63;;;8.27;;
24685;SDS011;12804;51.176;4.452;2023-02-13T15:14:24;10.63;;;7.97;;
24685;SDS011;12804;51.176;4.452;2023-02-13T15:19:36;11.80;;;8.15;;
24685;SDS011;12804;51.176;4.452;2023-02-13T15:24:43;11.18;;;8.70;;
24685;SDS011;12804;51.176;4.452;2023-02-13T15:27:15;12.35;;;8.38;;
24685;SDS011;12804;51.176;4.452;2023-02-13T15:29:53;10.10;;;7.97;;
24685;SDS011;12804;51.176;4.452;2023-02-13T15:32:29;10.75;;;8.27;;
24685;SDS011;12804;51.176;4.452;2023-02-13T15:34:58;11.52;;;8.50;;
24685;SDS011;12804;51.176;4.452;2023-02-13T15:37:27;11.52;;;7.88;;
24685;SDS011;12804;51.176;4.452;2023-02-13T15:39:54;14.85;;;8.50;;
24685;SDS011;12804;51.176;4.452;2023-02-13T15:42:20;10.63;;;7.97;;
24685;SDS011;12804;51.176;4.452;2023-02-13T15:44:47;10.82;;;8.30;;
24685;SDS011;12804;51.176;4.452;2023-02-13T15:47:21;10.40;;;8.18;;
24685;SDS011;12804;51.176;4.452;2023-02-13T15:49:51;10.30;;;7.90;;
24685;SDS011;12804;51.176;4.452;2023-02-13T15:52:19;9.98;;;7.78;;
24685;SDS011;12804;51.176;4.452;2023-02-13T15:55:14;10.52;;;7.85;;
24685;SDS011;12804;51.176;4.452;2023-02-13T15:57:47;11.43;;;8.20;;
24685;SDS011;12804;51.176;4.452;2023-02-13T16:00:18;9.77;;;7.72;;
24685;SDS011;12804;51.176;4.452;2023-02-13T16:02:49;11.30;;;8.05;;
24685;SDS011;12804;51.176;4.452;2023-02-13T16:05:17;9.70;;;7.32;;
24685;SDS011;12804;51.176;4.452;2023-02-13T16:07:51;9.52;;;7.38;;
24685;SDS011;12804;51.176;4.452;2023-02-13T16:13:00;10.20;;;7.55;;
24685;SDS011;12804;51.176;4.452;2023-02-13T16:15:31;9.75;;;7.68;;
24685;SDS011;12804;51.176;4.452;2023-02-13T16:17:59;11.10;;;7.72;;
24685;SDS011;12804;51.176;4.452;2023-02-13T16:20:28;9.48;;;7.03;;
24685;SDS011;12804;51.176;4.452;2023-02-13T16:23:00;9.40;;;7.40;;
24685;SDS011;12804;51.176;4.452;2023-02-13T16:25:34;9.07;;;6.97;;
24685;SDS011;12804;51.176;4.452;2023-02-13T16:28:17;11.27;;;7.80;;
24685;SDS011;12804;51.176;4.452;2023-02-13T16:30:59;11.68;;;7.97;;
24685;SDS011;12804;51.176;4.452;2023-02-13T16:33:27;9.30;;;7.03;;
24685;SDS011;12804;51.176;4.452;2023-02-13T16:35:58;11.35;;;7.68;;
24685;SDS011;12804;51.176;4.452;2023-02-13T16:38:47;10.30;;;7.35;;
24685;SDS011;12804;51.176;4.452;2023-02-13T16:43:55;11.43;;;7.63;;
24685;SDS011;12804;51.176;4.452;2023-02-13T16:46:38;10.93;;;7.28;;
24685;SDS011;12804;51.176;4.452;2023-02-13T17:04:40;11.65;;;7.63;;
24685;SDS011;12804;51.176;4.452;2023-02-13T17:07:14;11.65;;;8.07;;
24685;SDS011;12804;51.176;4.452;2023-02-13T17:12:17;11.43;;;7.40;;
24685;SDS011;12804;51.176;4.452;2023-02-13T17:14:44;10.98;;;7.60;;
24685;SDS011;12804;51.176;4.452;2023-02-13T17:17:14;11.25;;;7.95;;
24685;SDS011;12804;51.176;4.452;2023-02-13T17:19:43;13.90;;;8.40;;
24685;SDS011;12804;51.176;4.452;2023-02-13T17:22:29;13.07;;;7.63;;
24685;SDS011;12804;51.176;4.452;2023-02-13T17:25:01;12.70;;;8.68;;
24685;SDS011;12804;51.176;4.452;2023-02-13T17:27:30;15.43;;;8.23;;
24685;SDS011;12804;51.176;4.452;2023-02-13T17:29:56;16.63;;;9.57;;
24685;SDS011;12804;51.176;4.452;2023-02-13T17:32:22;14.23;;;8.98;;
24685;SDS011;12804;51.176;4.452;2023-02-13T17:34:50;16.77;;;9.68;;
24685;SDS011;12804;51.176;4.452;2023-02-13T17:37:21;15.98;;;10.07;;
24685;SDS011;12804;51.176;4.452;2023-02-13T17:39:49;17.38;;;10.77;;
24685;SDS011;12804;51.176;4.452;2023-02-13T17:42:17;17.92;;;9.75;;
24685;SDS011;12804;51.176;4.452;2023-02-13T17:44:46;17.60;;;9.45;;
24685;SDS011;12804;51.176;4.452;2023-02-13T17:47:13;16.27;;;9.55;;
24685;SDS011;12804;51.176;4.452;2023-02-13T17:49:39;20.42;;;9.40;;
24685;SDS011;12804;51.176;4.452;2023-02-13T17:52:05;16.90;;;9.90;;
24685;SDS011;12804;51.176;4.452;2023-02-13T17:54:31;17.67;;;9.18;;
24685;SDS011;12804;51.176;4.452;2023-02-13T17:56:58;14.80;;;9.57;;
24685;SDS011;12804;51.176;4.452;2023-02-13T17:59:24;20.88;;;10.10;;
24685;SDS011;12804;51.176;4.452;2023-02-13T18:01:51;16.75;;;9.88;;
24685;SDS011;12804;51.176;4.452;2023-02-13T18:04:17;20.65;;;9.98;;
24685;SDS011;12804;51.176;4.452;2023-02-13T18:06:43;19.75;;;10.82;;
24685;SDS011;12804;51.176;4.452;2023-02-13T18:09:09;18.23;;;10.50;;
24685;SDS011;12804;51.176;4.452;2023-02-13T18:11:36;20.90;;;10.20;;
24685;SDS011;12804;51.176;4.452;2023-02-13T18:14:02;18.13;;;10.77;;
24685;SDS011;12804;51.176;4.452;2023-02-13T18:16:28;19.17;;;11.07;;
24685;SDS011;12804;51.176;4.452;2023-02-13T18:18:55;20.13;;;11.00;;
24685;SDS011;12804;51.176;4.452;2023-02-13T18:21:21;17.95;;;10.73;;
24685;SDS011;12804;51.176;4.452;2023-02-13T18:23:50;25.15;;;11.85;;